Time;durP1;ratioP1;P1;durP2;ratioP2;P2;SDS_P1;SDS_P2;PMS_P1;PMS_P2;Temp;Humidity;BMP_temperature;BMP_pressure;BME280_temperature;BME280_humidity;BME280_pressure;Samples;Min_cycle;Max_cycle;Signal;HPM_P1;HPM_P2
2021/01/31 00:02:11;;;;;;;13.52;8.10;;;0.60;87.10;;;;;;5033680;28;20029;-79
2021/01/31 00:04:37;;;;;;;13.40;8.00;;;0.60;87.30;;;;;;5015887;28;20056;-80
2021/01/31 00:07:04;;;;;;;13.02;7.85;;;0.60;86.40;;;;;;5015931;28;20384;-79
2021/01/31 00:09:30;;;;;;;13.10;8.25;;;0.50;87.00;;;;;;5015923;28;20435;-79
2021/01/31 00:11:55;;;;;;;12.13;7.75;;;0.50;87.80;;;;;;5015984;28;20112;-79
2021/01/31 00:14:21;;;;;;;13.55;7.93;;;0.50;86.80;;;;;;5015694;28;20022;-80
2021/01/31 00:16:47;;;;;;;12.95;7.80;;;0.60;86.60;;;;;;5016216;28;20025;-80
2021/01/31 00:19:13;;;;;;;13.10;7.80;;;0.50;86.70;;;;;;5016156;28;20021;-79
2021/01/31 00:21:38;;;;;;;13.25;8.70;;;0.50;86.90;;;;;;5015844;28;20041;-80
2021/01/31 00:24:04;;;;;;;11.70;8.07;;;0.50;86.40;;;;;;5015776;28;20033;-79
2021/01/31 00:26:30;;;;;;;12.50;8.23;;;0.50;85.90;;;;;;5015519;28;20040;-79
2021/01/31 00:28:55;;;;;;;11.07;7.65;;;0.40;86.00;;;;;;5015961;28;20041;-79
2021/01/31 00:31:21;;;;;;;11.30;7.70;;;0.50;85.80;;;;;;5015846;28;20040;-79
2021/01/31 00:33:47;;;;;;;11.32;7.63;;;0.50;85.80;;;;;;5015591;28;20036;-79
2021/01/31 00:36:12;;;;;;;14.05;8.10;;;0.50;85.70;;;;;;5015739;28;20025;-79
2021/01/31 00:38:38;;;;;;;12.20;7.50;;;0.50;86.30;;;;;;5032862;28;20099;-80
2021/01/31 00:41:03;;;;;;;12.38;7.47;;;0.40;86.30;;;;;;5033353;28;20044;-80
2021/01/31 00:43:29;;;;;;;11.38;7.60;;;0.50;86.40;;;;;;5015736;28;20412;-80
2021/01/31 00:45:56;;;;;;;11.50;8.20;;;0.50;86.10;;;;;;5014881;28;20117;-80
2021/01/31 00:48:22;;;;;;;12.07;8.40;;;0.50;85.60;;;;;;5015689;28;20524;-80
2021/01/31 00:50:47;;;;;;;12.80;7.70;;;0.50;85.30;;;;;;5015371;28;20108;-81
2021/01/31 00:53:13;;;;;;;12.43;7.70;;;0.50;85.20;;;;;;5015946;28;20543;-80
2021/01/31 00:55:39;;;;;;;13.60;8.30;;;0.50;86.40;;;;;;5033293;28;20024;-80
2021/01/31 00:58:04;;;;;;;11.27;7.95;;;0.50;86.70;;;;;;5015507;28;20041;-80
2021/01/31 01:00:32;;;;;;;11.45;7.72;;;0.50;86.90;;;;;;5015450;28;20034;-80
2021/01/31 01:02:58;;;;;;;12.65;7.90;;;0.50;85.20;;;;;;5015387;28;20114;-79
2021/01/31 01:05:28;;;;;;;11.27;7.70;;;0.50;86.40;;;;;;5015405;28;20029;-79
2021/01/31 01:07:54;;;;;;;11.50;7.90;;;0.60;86.90;;;;;;5015616;28;20029;-79
2021/01/31 01:10:23;;;;;;;15.40;8.68;;;0.60;86.60;;;;;;5015250;28;20119;-79
2021/01/31 01:12:49;;;;;;;12.70;7.75;;;0.60;86.00;;;;;;5032967;28;20118;-80
2021/01/31 01:15:17;;;;;;;13.30;8.57;;;0.60;86.60;;;;;;5015337;28;20033;-80
2021/01/31 01:17:43;;;;;;;13.63;8.70;;;0.60;86.80;;;;;;5014525;28;20025;-80
2021/01/31 01:20:10;;;;;;;12.63;8.43;;;0.70;86.00;;;;;;5015235;28;20053;-81
2021/01/31 01:22:35;;;;;;;14.40;8.07;;;0.60;86.30;;;;;;5015376;28;20021;-81
2021/01/31 01:25:03;;;;;;;13.75;8.73;;;0.70;87.50;;;;;;5015529;28;20044;-80
2021/01/31 01:27:30;;;;;;;13.32;8.65;;;0.70;88.50;;;;;;5015294;28;20083;-80
2021/01/31 01:29:57;;;;;;;13.75;9.32;;;0.60;87.90;;;;;;5015109;28;20026;-80
2021/01/31 01:32:22;;;;;;;12.27;8.43;;;0.60;87.10;;;;;;5015046;28;20030;-80
2021/01/31 01:34:48;;;;;;;13.15;8.95;;;0.60;87.40;;;;;;5015239;28;20412;-80
2021/01/31 01:37:14;;;;;;;13.63;8.90;;;0.60;88.20;;;;;;5014919;28;20030;-80
2021/01/31 01:39:40;;;;;;;15.43;9.05;;;0.60;89.10;;;;;;5014940;28;20025;-79
2021/01/31 01:42:08;;;;;;;13.38;9.23;;;0.60;89.10;;;;;;5015081;28;20171;-79
2021/01/31 01:44:34;;;;;;;15.77;9.35;;;0.60;89.60;;;;;;5015195;28;20022;-80
2021/01/31 01:47:02;;;;;;;12.35;8.95;;;0.60;88.80;;;;;;5015204;28;20427;-80
2021/01/31 01:49:32;;;;;;;13.88;8.98;;;0.50;90.00;;;;;;5032681;28;20473;-80
2021/01/31 01:52:02;;;;;;;12.70;8.63;;;0.50;89.80;;;;;;5015195;28;20017;-80
2021/01/31 01:54:34;;;;;;;14.25;9.40;;;0.50;89.80;;;;;;5032542;28;20029;-79
2021/01/31 01:57:06;;;;;;;18.27;10.50;;;0.50;90.30;;;;;;5033333;28;20387;-79
2021/01/31 01:59:34;;;;;;;14.45;9.90;;;0.50;90.50;;;;;;5018443;28;20382;-80
2021/01/31 02:02:22;;;;;;;14.13;9.43;;;0.50;90.90;;;;;;5018195;28;20025;-79
2021/01/31 02:04:48;;;;;;;15.02;10.07;;;0.40;90.60;;;;;;5018545;28;20049;-80
2021/01/31 02:07:14;;;;;;;15.23;11.10;;;0.40;91.40;;;;;;5035866;28;20021;-80
2021/01/31 02:09:47;;;;;;;15.32;10.75;;;0.30;91.10;;;;;;5018342;28;20029;-80
2021/01/31 02:12:15;;;;;;;16.75;11.43;;;0.30;91.40;;;;;;5018355;28;20428;-79
2021/01/31 02:14:44;;;;;;;18.10;10.93;;;0.30;91.70;;;;;;5018591;28;20437;-79
2021/01/31 02:17:20;;;;;;;14.85;11.48;;;0.30;91.50;;;;;;5018311;28;20033;-81
2021/01/31 02:20:10;;;;;;;17.45;11.80;;;0.30;91.70;;;;;;5018279;28;20120;-79
2021/01/31 02:22:41;;;;;;;17.60;11.45;;;0.30;91.80;;;;;;5017917;28;20499;-80
2021/01/31 02:25:25;;;;;;;18.75;12.15;;;0.30;91.80;;;;;;5017944;28;20033;-80
2021/01/31 02:28:09;;;;;;;17.58;11.85;;;0.30;91.60;;;;;;5017868;28;20116;-79
2021/01/31 02:30:51;;;;;;;17.20;12.38;;;0.30;91.70;;;;;;5035577;28;20041;-80
2021/01/31 02:33:17;;;;;;;17.38;12.20;;;0.20;91.60;;;;;;5017836;28;20040;-79
2021/01/31 02:35:45;;;;;;;17.70;11.98;;;0.20;91.80;;;;;;5018030;28;20025;-79
2021/01/31 02:38:30;;;;;;;17.52;12.00;;;0.20;91.90;;;;;;5017646;28;20017;-78
2021/01/31 02:41:12;;;;;;;19.23;12.10;;;0.20;92.10;;;;;;5017479;28;20099;-79
2021/01/31 02:43:46;;;;;;;17.30;11.80;;;0.20;92.30;;;;;;5035225;28;20346;-81
2021/01/31 02:46:18;;;;;;;16.38;11.63;;;0.10;92.20;;;;;;5035067;28;20465;-80
2021/01/31 02:48:52;;;;;;;18.27;12.75;;;0.10;92.40;;;;;;5017220;28;20155;-79
2021/01/31 02:51:29;;;;;;;17.92;12.30;;;0.10;92.70;;;;;;5017523;28;20369;-80
2021/01/31 02:54:20;;;;;;;20.15;13.10;;;0.10;92.80;;;;;;5017070;28;20029;-79
2021/01/31 02:56:57;;;;;;;19.23;12.05;;;0.10;92.90;;;;;;5017872;28;20113;-80
2021/01/31 02:59:43;;;;;;;17.88;12.05;;;0.10;92.60;;;;;;5035457;28;20183;-79
2021/01/31 03:02:15;;;;;;;19.48;13.02;;;0.10;92.70;;;;;;5034701;28;20024;-81
2021/01/31 03:04:55;;;;;;;18.65;12.98;;;0.00;92.90;;;;;;5017236;28;20046;-80
2021/01/31 03:07:28;;;;;;;23.08;13.98;;;-0.10;92.90;;;;;;5017267;28;20026;-80
2021/01/31 03:10:10;;;;;;;18.98;13.45;;;-0.10;93.50;;;;;;5017466;28;20036;-80
2021/01/31 03:12:57;;;;;;;22.10;14.15;;;-0.20;93.40;;;;;;5017062;28;20025;-79
2021/01/31 03:15:28;;;;;;;21.92;14.13;;;-0.20;93.90;;;;;;5017679;28;20052;-79
2021/01/31 03:18:03;;;;;;;23.15;14.40;;;-0.20;94.00;;;;;;5017113;28;20025;-80
2021/01/31 03:20:35;;;;;;;20.85;14.43;;;-0.30;94.10;;;;;;5017369;28;20526;-80
2021/01/31 03:23:20;;;;;;;21.75;14.30;;;-0.20;94.30;;;;;;5017578;28;20032;-82
2021/01/31 03:26:10;;;;;;;21.80;14.30;;;-0.20;94.00;;;;;;5017113;28;20033;-79
2021/01/31 03:28:36;;;;;;;22.67;13.70;;;-0.20;93.60;;;;;;5017086;28;20400;-80
2021/01/31 03:31:03;;;;;;;22.17;14.65;;;-0.20;93.60;;;;;;5017294;28;20080;-80
2021/01/31 03:33:57;;;;;;;23.30;14.95;;;-0.20;93.80;;;;;;5017056;28;20043;-81
2021/01/31 03:36:25;;;;;;;24.08;14.82;;;-0.20;94.00;;;;;;5016261;28;20021;-81
2021/01/31 03:38:53;;;;;;;24.20;15.00;;;-0.20;94.00;;;;;;5033556;28;20104;-80
2021/01/31 03:41:21;;;;;;;23.13;14.82;;;-0.20;94.10;;;;;;5015812;28;20032;-81
2021/01/31 03:43:48;;;;;;;25.30;14.60;;;-0.20;94.50;;;;;;5015848;28;20560;-80
2021/01/31 03:46:24;;;;;;;21.35;14.95;;;-0.20;94.40;;;;;;5015786;28;20033;-80
2021/01/31 03:49:22;;;;;;;24.20;15.60;;;-0.30;94.20;;;;;;5015671;28;20397;-80
2021/01/31 03:51:49;;;;;;;21.83;14.73;;;-0.30;94.70;;;;;;5015983;28;20384;-80
2021/01/31 03:54:15;;;;;;;24.15;14.63;;;-0.20;93.90;;;;;;5015617;28;20038;-80
2021/01/31 03:56:47;;;;;;;23.25;15.93;;;-0.20;93.90;;;;;;5016116;28;20357;-80
2021/01/31 03:59:20;;;;;;;21.20;13.75;;;-0.20;94.30;;;;;;5016409;28;20026;-79
2021/01/31 04:01:49;;;;;;;22.63;14.45;;;-0.40;94.20;;;;;;5016152;28;20080;-80
2021/01/31 04:04:19;;;;;;;24.70;16.23;;;-0.40;94.40;;;;;;5016180;28;20407;-79
2021/01/31 04:06:50;;;;;;;28.80;16.13;;;-0.50;94.80;;;;;;5016111;28;20025;-80
2021/01/31 04:09:17;;;;;;;27.75;16.50;;;-0.50;94.70;;;;;;5016346;28;20454;-79
2021/01/31 04:11:44;;;;;;;24.02;15.63;;;-0.40;95.10;;;;;;5034078;28;20021;-80
2021/01/31 04:15:04;;;;;;;24.48;15.65;;;-0.40;94.70;;;;;;5015626;28;20037;-80
2021/01/31 04:17:29;;;;;;;24.73;15.25;;;-0.40;94.60;;;;;;4992319;28;20034;-79
2021/01/31 04:19:55;;;;;;;23.67;15.32;;;-0.40;94.90;;;;;;5012134;28;20037;-80
2021/01/31 04:22:20;;;;;;;23.80;14.77;;;-0.40;94.80;;;;;;5015994;28;20112;-80
2021/01/31 04:24:46;;;;;;;28.27;15.45;;;-0.40;95.20;;;;;;5033901;28;20033;-80
2021/01/31 04:27:14;;;;;;;21.33;14.07;;;-0.40;95.20;;;;;;5033725;28;20026;-79
2021/01/31 04:29:39;;;;;;;21.67;14.32;;;-0.40;95.10;;;;;;5016007;28;20048;-79
2021/01/31 04:32:05;;;;;;;24.90;16.25;;;-0.40;94.40;;;;;;5015437;28;20025;-80
2021/01/31 04:34:31;;;;;;;22.65;14.55;;;-0.50;95.30;;;;;;5033480;28;20461;-80
2021/01/31 04:36:57;;;;;;;22.88;15.07;;;-0.60;95.00;;;;;;5016090;28;20171;-80
2021/01/31 04:39:23;;;;;;;23.88;15.27;;;-0.50;95.30;;;;;;5016119;28;20068;-80
2021/01/31 04:41:49;;;;;;;24.70;15.48;;;-0.50;95.70;;;;;;5033449;28;20104;-80
2021/01/31 04:44:18;;;;;;;23.92;15.52;;;-0.50;96.00;;;;;;5033230;28;20119;-80
2021/01/31 04:46:53;;;;;;;23.27;15.80;;;-0.60;95.80;;;;;;5015551;28;20026;-80
2021/01/31 04:49:33;;;;;;;26.83;16.33;;;-0.60;96.00;;;;;;5033425;28;20037;-81
2021/01/31 04:52:40;;;;;;;22.35;15.52;;;-0.60;96.10;;;;;;5015547;28;20028;-80
2021/01/31 04:55:31;;;;;;;23.88;15.32;;;-0.60;96.00;;;;;;5014928;28;20707;-80
2021/01/31 04:58:11;;;;;;;24.08;15.13;;;-0.60;96.30;;;;;;5015383;28;20040;-79
2021/01/31 05:00:47;;;;;;;22.83;15.50;;;-0.60;96.40;;;;;;5033461;28;20065;-81
2021/01/31 05:03:13;;;;;;;23.70;14.75;;;-0.60;96.20;;;;;;5032930;28;20103;-80
2021/01/31 05:05:52;;;;;;;22.75;15.45;;;-0.60;96.40;;;;;;5015334;28;20037;-80
2021/01/31 05:08:23;;;;;;;24.08;15.18;;;-0.60;96.50;;;;;;5032787;28;20499;-81
2021/01/31 05:10:52;;;;;;;25.52;14.57;;;-0.60;96.60;;;;;;5033089;28;20025;-81
2021/01/31 05:13:36;;;;;;;21.83;14.43;;;-0.60;96.60;;;;;;5015349;28;20029;-80
2021/01/31 05:16:13;;;;;;;22.30;14.30;;;-0.60;96.10;;;;;;5014681;28;20064;-79
2021/01/31 05:18:54;;;;;;;20.30;13.68;;;-0.60;96.10;;;;;;5032583;28;20032;-80
2021/01/31 05:21:25;;;;;;;20.02;13.05;;;-0.60;95.90;;;;;;5032802;28;20045;-80
2021/01/31 05:23:56;;;;;;;22.40;13.50;;;-0.60;95.30;;;;;;5015247;28;20080;-78
2021/01/31 05:26:22;;;;;;;23.25;14.35;;;-0.70;95.30;;;;;;5032717;28;20076;-79
2021/01/31 05:29:02;;;;;;;24.60;13.75;;;-0.70;95.80;;;;;;5015261;28;20033;-79
2021/01/31 05:31:35;;;;;;;22.60;13.95;;;-0.70;95.80;;;;;;5034316;28;20025;-80
2021/01/31 05:34:02;;;;;;;20.25;13.18;;;-0.70;95.60;;;;;;5018906;28;20061;-79
2021/01/31 05:36:31;;;;;;;21.00;12.75;;;-0.80;95.50;;;;;;5036315;28;20040;-80
2021/01/31 05:38:57;;;;;;;21.70;14.07;;;-0.80;95.60;;;;;;5018702;28;20080;-78
2021/01/31 05:41:41;;;;;;;21.15;13.88;;;-0.70;95.90;;;;;;5036679;28;20084;-78
2021/01/31 05:44:24;;;;;;;20.95;13.05;;;-0.70;95.50;;;;;;5018872;28;20033;-79
2021/01/31 05:46:56;;;;;;;21.95;12.63;;;-0.70;95.40;;;;;;5036148;28;20025;-81
2021/01/31 05:49:31;;;;;;;20.40;12.45;;;-0.70;95.60;;;;;;5018704;28;20041;-80
2021/01/31 05:51:57;;;;;;;19.40;11.88;;;-0.60;95.20;;;;;;5018532;28;20021;-79
2021/01/31 05:54:35;;;;;;;17.70;12.13;;;-0.60;94.80;;;;;;5018944;28;20120;-80
2021/01/31 05:57:01;;;;;;;18.20;12.00;;;-0.60;95.00;;;;;;5018535;28;20033;-79
2021/01/31 05:59:40;;;;;;;19.17;11.27;;;-0.70;95.00;;;;;;5018971;28;20040;-79
2021/01/31 06:02:07;;;;;;;19.40;11.70;;;-0.70;95.20;;;;;;5017989;28;20040;-79
2021/01/31 06:04:33;;;;;;;22.45;13.27;;;-0.60;95.30;;;;;;5036216;28;20049;-80
2021/01/31 06:07:12;;;;;;;17.58;11.02;;;-0.70;95.30;;;;;;5021180;28;20056;-79
2021/01/31 06:09:44;;;;;;;19.02;11.80;;;-0.70;95.50;;;;;;5018931;28;20041;-79
2021/01/31 06:12:19;;;;;;;19.42;11.73;;;-0.70;95.30;;;;;;5017738;28;20021;-78
2021/01/31 06:15:05;;;;;;;16.83;10.27;;;0.00;99.90;;;;;;5022301;28;20033;-79
2021/01/31 06:17:33;;;;;;;17.10;11.70;;;-0.20;95.50;;;;;;5016656;28;20071;-81
2021/01/31 06:20:16;;;;;;;18.48;11.80;;;-0.20;95.20;;;;;;5017528;28;20108;-78
2021/01/31 06:22:48;;;;;;;18.98;11.73;;;-0.40;95.20;;;;;;5017235;28;20029;-78
2021/01/31 06:25:36;;;;;;;16.88;10.93;;;-0.50;94.90;;;;;;5017352;28;20025;-78
2021/01/31 06:28:11;;;;;;;16.13;10.45;;;-0.50;95.40;;;;;;5017071;28;20369;-80
2021/01/31 06:30:59;;;;;;;21.90;12.17;;;-0.60;95.30;;;;;;5017002;28;20468;-79
2021/01/31 06:33:25;;;;;;;17.50;11.43;;;-0.60;95.40;;;;;;5016926;28;20354;-79
2021/01/31 06:36:11;;;;;;;18.05;11.77;;;-0.60;95.60;;;;;;5017220;28;20485;-79
2021/01/31 06:39:26;;;;;;;19.35;11.57;;;-0.70;96.00;;;;;;5034730;28;20025;-78
2021/01/31 06:41:51;;;;;;;19.67;12.88;;;-0.60;96.00;;;;;;4977180;28;20041;-79
2021/01/31 06:44:39;;;;;;;19.25;12.18;;;-0.70;96.00;;;;;;5008003;28;20124;-80
2021/01/31 06:47:17;;;;;;;16.40;10.88;;;-0.70;96.20;;;;;;5034989;28;20039;-78
2021/01/31 06:50:15;;;;;;;18.08;11.57;;;-0.70;96.10;;;;;;5017203;28;20025;-77
2021/01/31 06:52:45;;;;;;;19.00;11.82;;;-0.70;96.10;;;;;;5016716;28;20025;-78
2021/01/31 06:55:25;;;;;;;21.98;11.23;;;-0.70;96.20;;;;;;5034821;28;20499;-78
2021/01/31 06:58:20;;;;;;;19.40;12.48;;;-0.70;96.20;;;;;;5017006;28;20033;-78
2021/01/31 07:00:57;;;;;;;16.75;11.38;;;-0.70;96.30;;;;;;5034869;28;20096;-79
2021/01/31 07:03:48;;;;;;;20.23;12.48;;;-0.70;96.20;;;;;;5016485;28;20053;-78
2021/01/31 07:07:08;;;;;;;23.15;12.00;;;-0.70;95.80;;;;;;5016817;28;20034;-78
2021/01/31 07:09:52;;;;;;;17.90;11.88;;;-0.60;95.80;;;;;;5008275;28;20045;-79
2021/01/31 07:12:38;;;;;;;17.98;11.68;;;-0.60;95.90;;;;;;5034326;28;20464;-78
2021/01/31 07:15:15;;;;;;;18.83;12.02;;;-0.60;95.80;;;;;;5016477;28;20538;-81
2021/01/31 07:18:06;;;;;;;21.10;12.95;;;-0.50;95.60;;;;;;5017295;28;20036;-84
2021/01/31 07:20:38;;;;;;;21.52;14.07;;;-0.50;95.20;;;;;;5017414;28;20199;-83
2021/01/31 07:23:11;;;;;;;22.15;14.32;;;-0.40;95.00;;;;;;5017567;28;20397;-81
2021/01/31 07:25:53;;;;;;;26.80;17.02;;;-0.30;95.10;;;;;;5017951;28;20034;-82
2021/01/31 07:28:29;;;;;;;25.35;15.73;;;-0.30;95.10;;;;;;5017834;28;20029;-80
2021/01/31 07:31:23;;;;;;;23.80;15.70;;;-0.30;94.90;;;;;;5017561;28;20033;-80
2021/01/31 07:34:13;;;;;;;22.60;14.55;;;-0.20;94.60;;;;;;5035075;28;20030;-81
2021/01/31 07:36:48;;;;;;;19.20;12.38;;;-0.20;94.40;;;;;;5034648;28;20017;-82
2021/01/31 07:39:21;;;;;;;17.58;12.00;;;-0.20;93.70;;;;;;5035163;28;20060;-82
2021/01/31 07:41:52;;;;;;;17.80;11.10;;;-0.10;94.00;;;;;;5017361;28;20076;-81
2021/01/31 07:44:22;;;;;;;18.13;11.80;;;0.00;94.10;;;;;;5034658;28;20025;-82
2021/01/31 07:46:48;;;;;;;17.45;11.85;;;0.10;93.40;;;;;;5016999;28;20028;-82
2021/01/31 07:49:14;;;;;;;18.20;11.60;;;0.10;93.20;;;;;;5017378;28;20033;-82
2021/01/31 07:51:39;;;;;;;23.55;15.65;;;0.20;93.10;;;;;;5034727;28;20480;-82
2021/01/31 07:54:27;;;;;;;16.65;11.10;;;0.30;92.80;;;;;;5034389;28;20393;-82
2021/01/31 07:57:16;;;;;;;24.80;15.00;;;0.30;92.20;;;;;;5034517;28;20372;-81
2021/01/31 07:59:42;;;;;;;20.15;12.65;;;0.30;93.00;;;;;;5016859;28;20024;-82
2021/01/31 08:02:09;;;;;;;20.02;13.23;;;0.30;92.80;;;;;;5016217;28;20030;-80
2021/01/31 08:04:34;;;;;;;22.15;13.40;;;0.40;92.80;;;;;;5016777;28;20096;-78
2021/01/31 08:07:04;;;;;;;21.75;14.73;;;0.50;92.50;;;;;;5017841;28;20053;-81
2021/01/31 08:09:30;;;;;;;16.83;11.48;;;0.60;92.30;;;;;;5034036;28;20033;-79
2021/01/31 08:12:13;;;;;;;23.27;14.32;;;0.60;92.30;;;;;;5017071;28;20159;-83
2021/01/31 08:15:04;;;;;;;18.80;13.25;;;0.60;92.20;;;;;;5016768;28;20036;-81
2021/01/31 08:17:40;;;;;;;35.05;24.35;;;0.70;91.70;;;;;;5016403;28;20029;-79
2021/01/31 08:20:27;;;;;;;18.38;12.20;;;0.70;92.20;;;;;;5016036;28;20771;-78
2021/01/31 08:22:54;;;;;;;19.08;13.38;;;0.80;92.50;;;;;;5015393;28;20029;-78
2021/01/31 08:25:26;;;;;;;25.08;15.93;;;0.90;91.90;;;;;;5015247;28;20021;-76
2021/01/31 08:28:08;;;;;;;49.22;30.10;;;0.90;91.10;;;;;;5042932;28;20087;-85
2021/01/31 08:31:04;;;;;;;20.88;14.20;;;1.00;90.90;;;;;;5016470;28;20120;-75
2021/01/31 08:33:35;;;;;;;22.67;14.55;;;1.00;90.60;;;;;;5014439;28;20033;-75
2021/01/31 08:36:20;;;;;;;88.35;51.95;;;0.90;90.60;;;;;;5016954;28;20029;-78
2021/01/31 08:38:51;;;;;;;78.10;22.73;;;0.80;90.40;;;;;;5036613;28;20025;-82
2021/01/31 08:41:26;;;;;;;32.42;22.80;;;1.60;99.90;;;;;;5015315;28;20053;-78
2021/01/31 08:43:58;;;;;;;21.65;13.85;;;2.50;94.00;;;;;;5015453;28;20029;-77
2021/01/31 08:46:31;;;;;;;36.60;17.23;;;3.70;87.60;;;;;;5016621;28;20029;-78
2021/01/31 08:49:14;;;;;;;37.55;17.92;;;3.70;86.70;;;;;;5033649;28;20039;-79
2021/01/31 08:51:43;;;;;;;21.95;14.68;;;3.80;79.50;;;;;;5015776;28;20026;-80
2021/01/31 08:54:14;;;;;;;19.35;14.35;;;3.60;85.20;;;;;;5032003;28;20018;-78
2021/01/31 08:56:41;;;;;;;17.27;12.25;;;3.50;82.90;;;;;;5014535;28;20416;-79
2021/01/31 08:59:14;;;;;;;13.82;9.88;;;3.40;76.60;;;;;;5013874;28;20064;-78
2021/01/31 09:01:43;;;;;;;20.98;12.73;;;3.40;79.70;;;;;;5014516;28;20025;-79
2021/01/31 09:04:11;;;;;;;20.73;14.60;;;3.60;81.60;;;;;;5032307;28;20068;-80
2021/01/31 09:06:38;;;;;;;32.40;26.23;;;2.90;78.90;;;;;;5016598;28;20476;-79
2021/01/31 09:09:05;;;;;;;11.13;8.57;;;2.40;82.00;;;;;;5019569;28;20040;-81
2021/01/31 09:11:31;;;;;;;16.90;11.50;;;1.90;85.00;;;;;;5019783;28;20025;-78
2021/01/31 09:14:11;;;;;;;21.00;12.98;;;1.60;84.10;;;;;;5019639;28;20349;-78
2021/01/31 09:16:37;;;;;;;12.98;10.10;;;1.40;85.80;;;;;;5018560;28;20385;-80
2021/01/31 09:19:23;;;;;;;11.95;7.65;;;1.30;85.30;;;;;;5036411;28;20013;-80
2021/01/31 09:21:53;;;;;;;15.10;9.10;;;1.30;84.60;;;;;;5020334;28;20021;-84
2021/01/31 09:24:22;;;;;;;12.63;6.68;;;2.20;91.10;;;;;;5021428;28;20026;-84
2021/01/31 09:26:53;;;;;;;11.40;7.47;;;3.10;89.00;;;;;;5018829;28;20033;-78
2021/01/31 09:29:23;;;;;;;8.80;6.10;;;3.60;85.00;;;;;;5018148;28;20563;-80
2021/01/31 09:31:55;;;;;;;18.25;11.30;;;3.30;79.50;;;;;;5036335;28;20022;-78
2021/01/31 09:34:23;;;;;;;10.30;7.68;;;3.40;79.50;;;;;;5018492;28;20032;-78
2021/01/31 09:37:11;;;;;;;10.88;6.07;;;3.30;84.00;;;;;;5018159;28;20022;-78
2021/01/31 09:39:39;;;;;;;20.08;12.15;;;3.30;82.20;;;;;;5035685;28;20025;-78
2021/01/31 09:42:06;;;;;;;9.43;6.47;;;3.50;81.50;;;;;;5035858;28;20022;-79
2021/01/31 09:44:35;;;;;;;14.32;9.13;;;3.60;84.40;;;;;;5035944;28;20562;-79
2021/01/31 09:47:03;;;;;;;13.70;8.75;;;4.10;82.90;;;;;;5037151;28;20057;-86
2021/01/31 09:49:30;;;;;;;28.38;17.88;;;4.20;79.60;;;;;;5020499;28;20091;-83
2021/01/31 09:52:07;;;;;;;75.15;42.42;;;4.00;78.30;;;;;;5038155;28;20587;-82
2021/01/31 09:54:35;;;;;;;35.85;19.40;;;4.00;74.60;;;;;;5020801;28;20032;-85
2021/01/31 09:57:13;;;;;;;50.50;34.75;;;3.80;77.10;;;;;;5020468;28;20022;-83
2021/01/31 09:59:40;;;;;;;62.45;48.10;;;3.60;77.60;;;;;;5019502;28;20028;-83
2021/01/31 10:02:20;;;;;;;40.78;30.95;;;3.70;77.20;;;;;;5018984;28;20025;-79
2021/01/31 10:04:57;;;;;;;64.72;47.45;;;3.70;77.50;;;;;;5036510;28;20050;-82
2021/01/31 10:07:39;;;;;;;30.55;23.73;;;3.90;80.90;;;;;;5037015;28;20025;-81
2021/01/31 10:10:42;;;;;;;30.60;20.40;;;3.90;77.30;;;;;;5020565;28;20075;-84
2021/01/31 10:13:22;;;;;;;21.20;13.98;;;3.70;74.80;;;;;;4943249;29;20118;-84
2021/01/31 10:16:00;;;;;;;30.60;21.33;;;4.10;77.00;;;;;;5013658;28;20037;-81
2021/01/31 10:18:38;;;;;;;17.70;12.70;;;3.90;76.40;;;;;;5019299;28;20026;-83
2021/01/31 10:21:13;;;;;;;30.52;17.60;;;4.10;77.30;;;;;;5021380;28;20022;-84
2021/01/31 10:23:39;;;;;;;38.03;20.65;;;3.80;73.20;;;;;;5021031;28;20037;-84
2021/01/31 10:26:07;;;;;;;81.38;39.10;;;3.70;71.70;;;;;;5020205;28;20120;-84
2021/01/31 10:28:38;;;;;;;32.10;21.92;;;3.50;76.20;;;;;;5020861;28;20064;-86
2021/01/31 10:31:05;;;;;;;94.72;67.95;;;3.50;70.30;;;;;;5020205;28;20025;-82
2021/01/31 10:33:49;;;;;;;12.55;8.32;;;3.20;72.90;;;;;;5019279;28;20030;-84
2021/01/31 10:36:30;;;;;;;14.32;8.82;;;2.70;77.00;;;;;;5019153;28;20032;-82
2021/01/31 10:38:59;;;;;;;37.78;24.45;;;2.40;76.70;;;;;;5019477;28;20029;-82
2021/01/31 10:41:25;;;;;;;6.95;4.35;;;2.30;77.70;;;;;;5019653;28;20028;-82
2021/01/31 10:43:58;;;;;;;29.55;18.80;;;2.30;79.40;;;;;;5021213;28;20483;-84
2021/01/31 10:46:25;;;;;;;86.95;61.97;;;2.80;75.50;;;;;;5019802;28;20026;-84
2021/01/31 10:48:50;;;;;;;46.03;35.17;;;2.70;74.60;;;;;;5020231;28;20033;-84
2021/01/31 10:51:16;;;;;;;24.58;12.35;;;2.50;76.10;;;;;;5018835;28;20381;-80
2021/01/31 10:53:42;;;;;;;43.05;27.33;;;2.50;79.80;;;;;;5019172;28;20057;-82
2021/01/31 10:56:08;;;;;;;7.30;4.53;;;2.60;77.80;;;;;;5018853;28;20060;-84
2021/01/31 10:58:34;;;;;;;39.75;20.20;;;2.60;77.00;;;;;;5037066;28;20022;-84
2021/01/31 11:00:59;;;;;;;76.70;39.47;;;2.30;75.20;;;;;;5018747;28;20072;-82
2021/01/31 11:03:25;;;;;;;20.65;12.88;;;2.40;80.70;;;;;;5018606;28;20052;-83
2021/01/31 11:05:50;;;;;;;104.97;61.63;;;2.50;80.30;;;;;;5018169;28;20488;-82
2021/01/31 11:08:16;;;;;;;41.78;20.45;;;2.50;78.20;;;;;;5018893;28;20108;-83
2021/01/31 11:10:42;;;;;;;7.25;4.47;;;2.60;76.70;;;;;;5018432;28;20548;-81
2021/01/31 11:13:08;;;;;;;5.75;3.08;;;2.60;78.30;;;;;;5018419;28;20647;-82
2021/01/31 11:15:33;;;;;;;19.25;14.48;;;2.60;77.10;;;;;;5018022;28;20511;-81
2021/01/31 11:17:59;;;;;;;11.95;8.77;;;2.60;78.60;;;;;;5018132;28;20392;-82
2021/01/31 11:20:25;;;;;;;5.25;3.40;;;2.60;77.30;;;;;;5017444;28;20810;-83
2021/01/31 11:22:50;;;;;;;4.97;2.65;;;2.60;77.30;;;;;;5016996;28;20041;-83
2021/01/31 11:25:16;;;;;;;4.50;3.00;;;2.40;75.40;;;;;;5017819;28;20022;-81
2021/01/31 11:27:41;;;;;;;7.57;4.05;;;2.30;76.80;;;;;;5017580;28;20354;-82
2021/01/31 11:30:08;;;;;;;4.25;2.70;;;2.50;78.70;;;;;;5017174;28;20040;-81
2021/01/31 11:32:34;;;;;;;9.85;4.65;;;2.50;76.10;;;;;;5016936;28;20028;-79
2021/01/31 11:35:00;;;;;;;4.03;2.67;;;2.40;76.00;;;;;;5017094;28;20030;-81
2021/01/31 11:37:25;;;;;;;6.13;2.30;;;2.50;78.80;;;;;;5017518;28;20056;-82
2021/01/31 11:39:51;;;;;;;3.85;2.65;;;2.60;77.60;;;;;;5016880;28;20061;-85
2021/01/31 11:42:16;;;;;;;10.85;8.73;;;2.40;78.30;;;;;;5035566;28;20061;-83
2021/01/31 11:44:42;;;;;;;8.10;6.47;;;2.50;78.90;;;;;;5017390;28;20521;-84
2021/01/31 11:47:08;;;;;;;3.47;2.50;;;2.60;80.80;;;;;;5035244;28;20029;-85
2021/01/31 11:49:34;;;;;;;6.72;4.30;;;2.80;76.80;;;;;;5017397;28;20045;-81
2021/01/31 11:51:59;;;;;;;5.20;3.20;;;2.80;80.00;;;;;;5017689;28;20465;-80
2021/01/31 11:54:25;;;;;;;5.15;3.17;;;2.80;77.20;;;;;;5017232;28;20037;-83
2021/01/31 11:56:51;;;;;;;4.25;2.88;;;2.80;74.50;;;;;;5017239;28;20020;-82
2021/01/31 11:59:17;;;;;;;5.80;4.32;;;2.80;78.10;;;;;;5017078;28;20124;-84
2021/01/31 12:01:43;;;;;;;6.07;3.75;;;2.90;80.10;;;;;;5018104;28;20013;-84
2021/01/31 12:04:08;;;;;;;4.97;3.08;;;3.30;76.90;;;;;;5010830;28;20169;-82
2021/01/31 12:06:34;;;;;;;4.22;2.47;;;3.20;75.30;;;;;;5004373;28;20017;-81
2021/01/31 12:09:00;;;;;;;4.15;2.72;;;3.10;76.30;;;;;;5030577;28;20477;-79
2021/01/31 12:11:27;;;;;;;4.82;3.13;;;3.00;76.20;;;;;;5011734;28;20049;-78
2021/01/31 12:13:54;;;;;;;6.72;4.75;;;2.90;76.90;;;;;;5009799;28;20032;-79
2021/01/31 12:16:20;;;;;;;5.05;2.97;;;3.00;76.40;;;;;;5001999;28;20018;-80
2021/01/31 12:18:45;;;;;;;6.18;3.60;;;3.00;77.50;;;;;;5029692;28;20049;-80
2021/01/31 12:21:11;;;;;;;5.40;3.92;;;2.90;77.00;;;;;;5008498;28;20026;-80
2021/01/31 12:23:38;;;;;;;4.47;3.03;;;2.80;79.20;;;;;;5007312;28;20032;-79
2021/01/31 12:26:03;;;;;;;5.35;3.17;;;2.70;77.40;;;;;;5012354;28;20022;-77
2021/01/31 12:28:29;;;;;;;6.05;4.00;;;2.70;78.70;;;;;;5030366;28;20034;-78
2021/01/31 12:30:55;;;;;;;10.40;6.60;;;2.80;79.40;;;;;;5009059;28;20055;-78
2021/01/31 12:33:20;;;;;;;7.13;5.25;;;2.80;80.00;;;;;;5012192;28;20017;-79
2021/01/31 12:35:46;;;;;;;7.40;5.07;;;2.90;80.40;;;;;;5012427;28;20033;-78
2021/01/31 12:38:11;;;;;;;6.45;4.25;;;2.90;79.70;;;;;;5012615;28;20056;-79
2021/01/31 12:40:37;;;;;;;5.60;3.80;;;2.80;77.80;;;;;;5011931;28;20124;-78
2021/01/31 12:43:03;;;;;;;7.18;4.00;;;2.60;74.70;;;;;;5008947;28;20026;-78
2021/01/31 12:45:29;;;;;;;7.13;4.57;;;2.70;77.80;;;;;;4992956;28;20454;-79
2021/01/31 12:47:54;;;;;;;7.57;4.90;;;2.80;79.40;;;;;;5002398;28;20043;-77
2021/01/31 12:50:24;;;;;;;7.10;4.88;;;2.90;78.10;;;;;;5012415;28;20822;-79
2021/01/31 12:52:49;;;;;;;5.97;4.28;;;2.80;79.50;;;;;;5011979;28;20053;-78
2021/01/31 12:55:15;;;;;;;6.80;5.10;;;2.80;79.10;;;;;;5006087;28;20118;-79
2021/01/31 12:57:41;;;;;;;6.57;5.22;;;2.80;79.40;;;;;;5003716;28;20469;-78
2021/01/31 13:00:09;;;;;;;6.03;3.90;;;2.80;79.80;;;;;;5001060;28;20038;-79
2021/01/31 13:02:36;;;;;;;5.80;4.07;;;2.90;76.80;;;;;;5008007;28;20029;-78
2021/01/31 13:05:02;;;;;;;7.70;5.20;;;3.00;78.70;;;;;;4995350;28;20037;-78